Terminal Aerodrome Forecast
Issued by NWS

Current Version | Previous Version | Text Only | Print | Product List | Glossary Off
Versions: 1 2 3 4 5 6 7 8 9 10 11 12 13 14

000
FTUS41 KPBZ 240852 AAA
TAFMGW
TAF AMD
KMGW 240852Z 2409/2506 18004KT P6SM OVC060
      TEMPO 2409/2411 6SM -RA
     FM241300 20008G18KT P6SM BKN100=

USA.gov is the U.S. government's official web portal to all federal, state and local government web resources and services.